Terminal Aerodrome Forecast
Issued by NWS

Home | Current Version | Previous Version | Graphics & Text | Print | Product List | Glossary On
Versions: 1 2 3 4 5 6 7 8 9 10 11 12 13 14 15 16 17 18 19 20 21 22
000
FTUS43 KBIS 240355 AAB
TAFDIK
TAF AMD
KDIK 240355Z 2404/2424 09017KT 1SM BR OVC003
      TEMPO 2404/2407 1/2SM FZFG OVC001
     FM240700 08011KT 6SM -RA OVC008
     FM241100 04007KT P6SM VCSH OVC003
     FM241300 01007KT P6SM OVC003
     FM241600 34009KT P6SM OVC008
     FM241800 34010KT P6SM OVC015
     FM242200 36010KT P6SM OVC025=

USA.gov is the U.S. government's official web portal to all federal, state and local government web resources and services.